sensor_id;sensor_type;location;lat;lon;timestamp;temperature;humidity
4366;DHT22;2196;47.422;9.656;2022-07-22T00:01:52;20.60;99.90
4366;DHT22;2196;47.422;9.656;2022-07-22T00:04:19;20.50;99.90
4366;DHT22;2196;47.422;9.656;2022-07-22T00:06:46;20.50;99.90
4366;DHT22;2196;47.422;9.656;2022-07-22T00:09:13;20.50;99.90
4366;DHT22;2196;47.422;9.656;2022-07-22T00:11:42;20.50;99.90
4366;DHT22;2196;47.422;9.656;2022-07-22T00:14:09;20.50;99.90
4366;DHT22;2196;47.422;9.656;2022-07-22T00:16:36;20.40;99.90
4366;DHT22;2196;47.422;9.656;2022-07-22T00:19:03;20.40;99.90
4366;DHT22;2196;47.422;9.656;2022-07-22T00:21:29;20.40;99.90
4366;DHT22;2196;47.422;9.656;2022-07-22T00:23:56;20.40;99.90
4366;DHT22;2196;47.422;9.656;2022-07-22T00:26:23;20.30;99.90
4366;DHT22;2196;47.422;9.656;2022-07-22T00:28:52;20.40;99.90
4366;DHT22;2196;47.422;9.656;2022-07-22T00:31:19;20.40;99.90
4366;DHT22;2196;47.422;9.656;2022-07-22T00:33:46;20.40;99.90
4366;DHT22;2196;47.422;9.656;2022-07-22T00:36:13;20.40;99.90
4366;DHT22;2196;47.422;9.656;2022-07-22T00:38:40;20.40;99.90
4366;DHT22;2196;47.422;9.656;2022-07-22T00:41:07;20.50;99.90
4366;DHT22;2196;47.422;9.656;2022-07-22T00:43:54;20.50;99.90
4366;DHT22;2196;47.422;9.656;2022-07-22T00:46:22;20.50;99.90
4366;DHT22;2196;47.422;9.656;2022-07-22T00:48:49;20.50;99.90
4366;DHT22;2196;47.422;9.656;2022-07-22T00:51:17;20.50;99.90
4366;DHT22;2196;47.422;9.656;2022-07-22T00:53:45;20.50;99.90
4366;DHT22;2196;47.422;9.656;2022-07-22T00:56:13;20.50;99.90
4366;DHT22;2196;47.422;9.656;2022-07-22T00:58:40;20.50;99.90
4366;DHT22;2196;47.422;9.656;2022-07-22T01:01:09;20.50;99.90
4366;DHT22;2196;47.422;9.656;2022-07-22T01:03:36;20.50;99.90
4366;DHT22;2196;47.422;9.656;2022-07-22T01:06:04;20.50;99.90
4366;DHT22;2196;47.422;9.656;2022-07-22T01:08:32;20.40;99.90
4366;DHT22;2196;47.422;9.656;2022-07-22T01:11:06;20.40;99.90
4366;DHT22;2196;47.422;9.656;2022-07-22T01:13:34;20.40;99.90
4366;DHT22;2196;47.422;9.656;2022-07-22T01:16:01;20.30;99.90
4366;DHT22;2196;47.422;9.656;2022-07-22T01:18:29;20.20;99.90
4366;DHT22;2196;47.422;9.656;2022-07-22T01:20:58;20.10;99.90
4366;DHT22;2196;47.422;9.656;2022-07-22T01:23:25;20.10;99.90
4366;DHT22;2196;47.422;9.656;2022-07-22T01:25:52;20.10;99.90
4366;DHT22;2196;47.422;9.656;2022-07-22T01:28:22;20.00;99.90
4366;DHT22;2196;47.422;9.656;2022-07-22T01:31:08;20.00;99.90
4366;DHT22;2196;47.422;9.656;2022-07-22T01:33:36;20.00;99.90
4366;DHT22;2196;47.422;9.656;2022-07-22T01:36:06;20.00;99.90
4366;DHT22;2196;47.422;9.656;2022-07-22T01:38:33;19.90;99.90
4366;DHT22;2196;47.422;9.656;2022-07-22T01:41:00;19.90;99.90
4366;DHT22;2196;47.422;9.656;2022-07-22T01:43:28;19.80;99.90
4366;DHT22;2196;47.422;9.656;2022-07-22T01:45:55;19.80;99.90
4366;DHT22;2196;47.422;9.656;2022-07-22T01:48:26;19.80;99.90
4366;DHT22;2196;47.422;9.656;2022-07-22T01:50:53;19.70;99.90
4366;DHT22;2196;47.422;9.656;2022-07-22T01:53:25;19.70;99.90
4366;DHT22;2196;47.422;9.656;2022-07-22T01:55:53;19.60;99.90
4366;DHT22;2196;47.422;9.656;2022-07-22T01:58:20;19.60;99.90
4366;DHT22;2196;47.422;9.656;2022-07-22T02:00:48;19.60;99.90
4366;DHT22;2196;47.422;9.656;2022-07-22T02:03:15;19.60;99.90
4366;DHT22;2196;47.422;9.656;2022-07-22T02:05:42;19.60;99.90
4366;DHT22;2196;47.422;9.656;2022-07-22T02:08:10;19.50;99.90
4366;DHT22;2196;47.422;9.656;2022-07-22T02:10:39;19.50;99.90
4366;DHT22;2196;47.422;9.656;2022-07-22T02:13:06;19.50;99.90
4366;DHT22;2196;47.422;9.656;2022-07-22T02:15:33;19.50;99.90
4366;DHT22;2196;47.422;9.656;2022-07-22T02:18:02;19.50;99.90
4366;DHT22;2196;47.422;9.656;2022-07-22T02:20:35;19.50;99.90
4366;DHT22;2196;47.422;9.656;2022-07-22T02:23:02;19.50;99.90
4366;DHT22;2196;47.422;9.656;2022-07-22T02:25:29;19.50;99.90
4366;DHT22;2196;47.422;9.656;2022-07-22T02:27:57;19.50;99.90
4366;DHT22;2196;47.422;9.656;2022-07-22T02:30:25;19.50;99.90
4366;DHT22;2196;47.422;9.656;2022-07-22T02:32:52;19.50;99.90
4366;DHT22;2196;47.422;9.656;2022-07-22T02:35:19;19.50;99.90
4366;DHT22;2196;47.422;9.656;2022-07-22T02:37:46;19.50;99.90
4366;DHT22;2196;47.422;9.656;2022-07-22T02:40:13;19.50;99.90
4366;DHT22;2196;47.422;9.656;2022-07-22T02:42:40;19.50;99.90
4366;DHT22;2196;47.422;9.656;2022-07-22T02:45:09;19.60;99.90
4366;DHT22;2196;47.422;9.656;2022-07-22T02:47:45;19.60;99.90
4366;DHT22;2196;47.422;9.656;2022-07-22T02:50:12;19.60;99.90
4366;DHT22;2196;47.422;9.656;2022-07-22T02:52:39;19.60;99.90
4366;DHT22;2196;47.422;9.656;2022-07-22T02:55:07;19.60;99.90
4366;DHT22;2196;47.422;9.656;2022-07-22T02:57:34;19.60;99.90
4366;DHT22;2196;47.422;9.656;2022-07-22T03:00:01;19.60;99.90
4366;DHT22;2196;47.422;9.656;2022-07-22T03:02:29;19.60;99.90
4366;DHT22;2196;47.422;9.656;2022-07-22T03:04:56;19.50;99.90
4366;DHT22;2196;47.422;9.656;2022-07-22T03:07:23;19.50;99.90
4366;DHT22;2196;47.422;9.656;2022-07-22T03:09:50;19.50;99.90
4366;DHT22;2196;47.422;9.656;2022-07-22T03:12:17;19.40;99.90
4366;DHT22;2196;47.422;9.656;2022-07-22T03:14:44;19.30;99.90
4366;DHT22;2196;47.422;9.656;2022-07-22T03:17:10;19.30;99.90
4366;DHT22;2196;47.422;9.656;2022-07-22T03:19:39;19.20;99.90
4366;DHT22;2196;47.422;9.656;2022-07-22T03:22:06;19.10;99.90
4366;DHT22;2196;47.422;9.656;2022-07-22T03:24:33;19.10;99.90
4366;DHT22;2196;47.422;9.656;2022-07-22T03:27:00;19.10;99.90
4366;DHT22;2196;47.422;9.656;2022-07-22T03:29:27;19.10;99.90
4366;DHT22;2196;47.422;9.656;2022-07-22T03:31:54;19.10;99.90
4366;DHT22;2196;47.422;9.656;2022-07-22T03:34:21;19.00;99.90
4366;DHT22;2196;47.422;9.656;2022-07-22T03:36:49;19.00;99.90
4366;DHT22;2196;47.422;9.656;2022-07-22T03:39:16;19.00;99.90
4366;DHT22;2196;47.422;9.656;2022-07-22T03:41:43;19.00;99.90
4366;DHT22;2196;47.422;9.656;2022-07-22T03:44:10;18.90;99.90
4366;DHT22;2196;47.422;9.656;2022-07-22T03:46:37;19.00;99.90
4366;DHT22;2196;47.422;9.656;2022-07-22T03:49:04;18.90;99.90
4366;DHT22;2196;47.422;9.656;2022-07-22T03:51:31;18.90;99.90
4366;DHT22;2196;47.422;9.656;2022-07-22T03:53:59;18.90;99.90
4366;DHT22;2196;47.422;9.656;2022-07-22T03:56:26;18.90;99.90
4366;DHT22;2196;47.422;9.656;2022-07-22T03:58:53;18.90;99.90
4366;DHT22;2196;47.422;9.656;2022-07-22T04:01:20;18.90;99.90
4366;DHT22;2196;47.422;9.656;2022-07-22T04:03:47;18.80;99.90
4366;DHT22;2196;47.422;9.656;2022-07-22T04:06:15;18.80;99.90
4366;DHT22;2196;47.422;9.656;2022-07-22T04:08:42;18.80;99.90
4366;DHT22;2196;47.422;9.656;2022-07-22T04:11:10;18.80;99.90
4366;DHT22;2196;47.422;9.656;2022-07-22T04:13:37;18.80;99.90
4366;DHT22;2196;47.422;9.656;2022-07-22T04:16:05;18.80;99.90
4366;DHT22;2196;47.422;9.656;2022-07-22T04:18:32;18.90;99.90
4366;DHT22;2196;47.422;9.656;2022-07-22T04:20:59;18.90;99.90
4366;DHT22;2196;47.422;9.656;2022-07-22T04:23:26;19.00;99.90
4366;DHT22;2196;47.422;9.656;2022-07-22T04:25:53;19.10;99.90
4366;DHT22;2196;47.422;9.656;2022-07-22T04:28:23;19.10;99.90
4366;DHT22;2196;47.422;9.656;2022-07-22T04:30:50;19.10;99.90
4366;DHT22;2196;47.422;9.656;2022-07-22T04:33:21;19.20;99.90
4366;DHT22;2196;47.422;9.656;2022-07-22T04:35:48;19.20;99.90
4366;DHT22;2196;47.422;9.656;2022-07-22T04:38:16;19.30;99.90
4366;DHT22;2196;47.422;9.656;2022-07-22T04:40:43;19.30;99.90
4366;DHT22;2196;47.422;9.656;2022-07-22T04:43:11;19.40;99.90
4366;DHT22;2196;47.422;9.656;2022-07-22T04:45:40;19.60;99.90
4366;DHT22;2196;47.422;9.656;2022-07-22T04:48:07;19.70;99.90
4366;DHT22;2196;47.422;9.656;2022-07-22T04:50:36;19.90;99.90
4366;DHT22;2196;47.422;9.656;2022-07-22T04:53:04;20.00;99.90
4366;DHT22;2196;47.422;9.656;2022-07-22T04:55:31;20.10;99.90
4366;DHT22;2196;47.422;9.656;2022-07-22T04:57:58;20.10;99.90
4366;DHT22;2196;47.422;9.656;2022-07-22T05:00:26;20.20;99.90
4366;DHT22;2196;47.422;9.656;2022-07-22T05:02:54;20.40;99.90
4366;DHT22;2196;47.422;9.656;2022-07-22T05:05:22;20.60;99.90
4366;DHT22;2196;47.422;9.656;2022-07-22T05:07:49;21.00;99.90
4366;DHT22;2196;47.422;9.656;2022-07-22T05:10:17;21.50;99.90
4366;DHT22;2196;47.422;9.656;2022-07-22T05:12:46;22.00;99.90
4366;DHT22;2196;47.422;9.656;2022-07-22T05:15:13;22.60;99.90
4366;DHT22;2196;47.422;9.656;2022-07-22T05:17:40;23.20;99.90
4366;DHT22;2196;47.422;9.656;2022-07-22T05:20:10;23.70;99.90
4366;DHT22;2196;47.422;9.656;2022-07-22T05:22:37;24.10;99.90
4366;DHT22;2196;47.422;9.656;2022-07-22T05:25:05;24.70;99.90
4366;DHT22;2196;47.422;9.656;2022-07-22T05:27:32;24.90;99.90
4366;DHT22;2196;47.422;9.656;2022-07-22T05:29:59;25.20;99.90
4366;DHT22;2196;47.422;9.656;2022-07-22T05:32:26;25.50;99.90
4366;DHT22;2196;47.422;9.656;2022-07-22T05:34:53;25.70;99.90
4366;DHT22;2196;47.422;9.656;2022-07-22T05:37:21;26.20;99.90
4366;DHT22;2196;47.422;9.656;2022-07-22T05:39:48;26.50;99.90
4366;DHT22;2196;47.422;9.656;2022-07-22T05:42:15;26.90;99.90
4366;DHT22;2196;47.422;9.656;2022-07-22T05:44:42;27.40;99.90
4366;DHT22;2196;47.422;9.656;2022-07-22T05:47:09;27.80;99.90
4366;DHT22;2196;47.422;9.656;2022-07-22T05:49:38;28.00;99.90
4366;DHT22;2196;47.422;9.656;2022-07-22T05:52:05;28.30;99.90
4366;DHT22;2196;47.422;9.656;2022-07-22T05:54:33;28.50;99.90
4366;DHT22;2196;47.422;9.656;2022-07-22T05:57:00;28.70;99.90
4366;DHT22;2196;47.422;9.656;2022-07-22T05:59:28;29.00;99.90
4366;DHT22;2196;47.422;9.656;2022-07-22T06:01:56;29.20;99.90
4366;DHT22;2196;47.422;9.656;2022-07-22T06:04:23;29.60;99.90
4366;DHT22;2196;47.422;9.656;2022-07-22T06:06:50;29.50;99.90
4366;DHT22;2196;47.422;9.656;2022-07-22T06:09:17;29.40;99.90
4366;DHT22;2196;47.422;9.656;2022-07-22T06:11:46;29.60;99.90
4366;DHT22;2196;47.422;9.656;2022-07-22T06:14:13;30.00;99.90
4366;DHT22;2196;47.422;9.656;2022-07-22T06:16:40;30.50;99.90
4366;DHT22;2196;47.422;9.656;2022-07-22T06:19:07;30.60;99.90
4366;DHT22;2196;47.422;9.656;2022-07-22T06:21:34;30.80;99.90
4366;DHT22;2196;47.422;9.656;2022-07-22T06:24:02;30.90;99.90
4366;DHT22;2196;47.422;9.656;2022-07-22T06:26:29;31.00;99.90
4366;DHT22;2196;47.422;9.656;2022-07-22T06:28:57;31.20;99.90
4366;DHT22;2196;47.422;9.656;2022-07-22T06:31:24;31.30;99.90
4366;DHT22;2196;47.422;9.656;2022-07-22T06:33:51;31.80;99.90
4366;DHT22;2196;47.422;9.656;2022-07-22T06:36:18;31.90;99.90
4366;DHT22;2196;47.422;9.656;2022-07-22T06:38:45;32.30;99.90
4366;DHT22;2196;47.422;9.656;2022-07-22T06:41:12;32.70;99.90
4366;DHT22;2196;47.422;9.656;2022-07-22T06:43:44;32.80;99.90
4366;DHT22;2196;47.422;9.656;2022-07-22T06:46:12;32.90;99.90
4366;DHT22;2196;47.422;9.656;2022-07-22T06:48:39;32.50;99.90
4366;DHT22;2196;47.422;9.656;2022-07-22T06:51:06;32.70;99.90
4366;DHT22;2196;47.422;9.656;2022-07-22T06:53:34;32.80;99.90
4366;DHT22;2196;47.422;9.656;2022-07-22T06:56:01;33.00;99.90
4366;DHT22;2196;47.422;9.656;2022-07-22T06:58:28;32.90;99.90
4366;DHT22;2196;47.422;9.656;2022-07-22T07:00:55;33.20;99.90
4366;DHT22;2196;47.422;9.656;2022-07-22T07:03:27;33.40;99.90
4366;DHT22;2196;47.422;9.656;2022-07-22T07:05:54;33.40;99.90
4366;DHT22;2196;47.422;9.656;2022-07-22T07:08:23;33.00;99.90
4366;DHT22;2196;47.422;9.656;2022-07-22T07:10:50;33.30;99.90
4366;DHT22;2196;47.422;9.656;2022-07-22T07:13:17;33.60;99.90
4366;DHT22;2196;47.422;9.656;2022-07-22T07:15:44;33.70;99.90
4366;DHT22;2196;47.422;9.656;2022-07-22T07:18:11;33.90;99.90
4366;DHT22;2196;47.422;9.656;2022-07-22T07:20:40;34.10;99.90
4366;DHT22;2196;47.422;9.656;2022-07-22T07:23:07;33.90;99.90
4366;DHT22;2196;47.422;9.656;2022-07-22T07:25:34;34.00;99.90
4366;DHT22;2196;47.422;9.656;2022-07-22T07:28:01;34.10;99.90
4366;DHT22;2196;47.422;9.656;2022-07-22T07:30:28;34.10;99.90
4366;DHT22;2196;47.422;9.656;2022-07-22T07:32:55;34.30;99.90
4366;DHT22;2196;47.422;9.656;2022-07-22T07:35:22;33.90;99.90
4366;DHT22;2196;47.422;9.656;2022-07-22T07:37:50;34.00;99.90
4366;DHT22;2196;47.422;9.656;2022-07-22T07:40:17;34.10;99.90
4366;DHT22;2196;47.422;9.656;2022-07-22T07:42:45;34.10;99.90
4366;DHT22;2196;47.422;9.656;2022-07-22T07:45:12;34.00;99.90
4366;DHT22;2196;47.422;9.656;2022-07-22T07:47:39;34.60;99.90
4366;DHT22;2196;47.422;9.656;2022-07-22T07:50:07;34.80;99.90
4366;DHT22;2196;47.422;9.656;2022-07-22T07:52:37;34.60;99.50
4366;DHT22;2196;47.422;9.656;2022-07-22T07:55:07;34.90;99.90
4366;DHT22;2196;47.422;9.656;2022-07-22T07:57:35;35.20;99.90
4366;DHT22;2196;47.422;9.656;2022-07-22T08:00:07;35.20;99.80
4366;DHT22;2196;47.422;9.656;2022-07-22T08:02:34;35.30;99.00
4366;DHT22;2196;47.422;9.656;2022-07-22T08:05:01;35.20;99.60
4366;DHT22;2196;47.422;9.656;2022-07-22T08:07:29;35.40;99.10
4366;DHT22;2196;47.422;9.656;2022-07-22T08:09:56;35.50;99.90
4366;DHT22;2196;47.422;9.656;2022-07-22T08:12:24;35.60;99.30
4366;DHT22;2196;47.422;9.656;2022-07-22T08:14:51;35.30;99.10
4366;DHT22;2196;47.422;9.656;2022-07-22T08:17:18;35.50;99.90
4366;DHT22;2196;47.422;9.656;2022-07-22T08:19:45;35.40;99.10
4366;DHT22;2196;47.422;9.656;2022-07-22T08:22:12;35.40;99.30
4366;DHT22;2196;47.422;9.656;2022-07-22T08:24:39;35.80;99.40
4366;DHT22;2196;47.422;9.656;2022-07-22T08:27:06;34.80;99.60
4366;DHT22;2196;47.422;9.656;2022-07-22T08:29:35;35.10;99.10
4366;DHT22;2196;47.422;9.656;2022-07-22T08:32:02;35.00;98.70
4366;DHT22;2196;47.422;9.656;2022-07-22T08:34:29;35.40;98.80
4366;DHT22;2196;47.422;9.656;2022-07-22T08:36:56;35.70;99.00
4366;DHT22;2196;47.422;9.656;2022-07-22T08:39:22;35.70;97.40
4366;DHT22;2196;47.422;9.656;2022-07-22T08:41:49;36.00;97.40
4366;DHT22;2196;47.422;9.656;2022-07-22T08:44:17;35.70;99.40
4366;DHT22;2196;47.422;9.656;2022-07-22T08:46:46;35.50;97.70
4366;DHT22;2196;47.422;9.656;2022-07-22T08:49:14;35.70;98.60
4366;DHT22;2196;47.422;9.656;2022-07-22T08:51:40;35.30;97.70
4366;DHT22;2196;47.422;9.656;2022-07-22T08:54:08;35.20;99.60
4366;DHT22;2196;47.422;9.656;2022-07-22T08:56:35;35.10;96.90
4366;DHT22;2196;47.422;9.656;2022-07-22T08:59:03;34.90;98.80
4366;DHT22;2196;47.422;9.656;2022-07-22T09:01:30;35.40;98.30
4366;DHT22;2196;47.422;9.656;2022-07-22T09:03:59;35.60;97.40
4366;DHT22;2196;47.422;9.656;2022-07-22T09:06:27;36.00;96.70
4366;DHT22;2196;47.422;9.656;2022-07-22T09:09:00;35.90;95.70
4366;DHT22;2196;47.422;9.656;2022-07-22T09:11:29;36.30;96.20
4366;DHT22;2196;47.422;9.656;2022-07-22T09:13:58;36.50;95.70
4366;DHT22;2196;47.422;9.656;2022-07-22T09:16:42;36.90;94.90
4366;DHT22;2196;47.422;9.656;2022-07-22T09:19:12;36.70;94.00
4366;DHT22;2196;47.422;9.656;2022-07-22T09:21:41;36.50;95.90
4366;DHT22;2196;47.422;9.656;2022-07-22T09:24:26;36.20;96.20
4366;DHT22;2196;47.422;9.656;2022-07-22T09:26:54;35.60;95.40
4366;DHT22;2196;47.422;9.656;2022-07-22T09:29:22;35.30;97.50
4366;DHT22;2196;47.422;9.656;2022-07-22T09:31:51;35.60;97.80
4366;DHT22;2196;47.422;9.656;2022-07-22T09:34:28;35.50;94.50
4366;DHT22;2196;47.422;9.656;2022-07-22T09:36:58;35.90;94.10
4366;DHT22;2196;47.422;9.656;2022-07-22T09:39:25;35.70;94.80
4366;DHT22;2196;47.422;9.656;2022-07-22T09:42:00;36.30;93.90
4366;DHT22;2196;47.422;9.656;2022-07-22T09:44:27;36.30;92.90
4366;DHT22;2196;47.422;9.656;2022-07-22T09:46:54;37.00;92.00
4366;DHT22;2196;47.422;9.656;2022-07-22T09:49:33;36.90;94.20
4366;DHT22;2196;47.422;9.656;2022-07-22T09:52:01;36.60;94.00
4366;DHT22;2196;47.422;9.656;2022-07-22T09:54:28;35.60;93.90
4366;DHT22;2196;47.422;9.656;2022-07-22T09:56:55;35.00;94.90
4366;DHT22;2196;47.422;9.656;2022-07-22T09:59:22;34.90;95.70
4366;DHT22;2196;47.422;9.656;2022-07-22T10:01:54;34.80;95.90
4366;DHT22;2196;47.422;9.656;2022-07-22T10:04:24;35.10;93.50
4366;DHT22;2196;47.422;9.656;2022-07-22T10:06:54;35.20;95.30
4366;DHT22;2196;47.422;9.656;2022-07-22T10:09:23;35.30;94.10
4366;DHT22;2196;47.422;9.656;2022-07-22T10:11:50;34.90;94.10
4366;DHT22;2196;47.422;9.656;2022-07-22T10:14:18;35.10;96.90
4366;DHT22;2196;47.422;9.656;2022-07-22T10:16:47;34.70;95.70
4366;DHT22;2196;47.422;9.656;2022-07-22T10:19:15;35.00;96.40
4366;DHT22;2196;47.422;9.656;2022-07-22T10:21:42;34.50;94.60
4366;DHT22;2196;47.422;9.656;2022-07-22T10:24:13;34.70;94.30
4366;DHT22;2196;47.422;9.656;2022-07-22T10:26:47;35.10;95.80
4366;DHT22;2196;47.422;9.656;2022-07-22T10:29:26;35.00;95.00
4366;DHT22;2196;47.422;9.656;2022-07-22T10:32:23;34.20;95.00
4366;DHT22;2196;47.422;9.656;2022-07-22T10:35:23;33.90;93.80
4366;DHT22;2196;47.422;9.656;2022-07-22T10:37:59;34.40;95.50
4366;DHT22;2196;47.422;9.656;2022-07-22T10:40:29;34.80;95.00
4366;DHT22;2196;47.422;9.656;2022-07-22T10:43:08;35.10;94.10
4366;DHT22;2196;47.422;9.656;2022-07-22T10:45:39;35.20;93.60
4366;DHT22;2196;47.422;9.656;2022-07-22T10:48:07;35.50;95.30
4366;DHT22;2196;47.422;9.656;2022-07-22T10:50:39;34.80;95.10
4366;DHT22;2196;47.422;9.656;2022-07-22T10:53:08;34.80;95.60
4366;DHT22;2196;47.422;9.656;2022-07-22T10:55:37;34.70;97.70
4366;DHT22;2196;47.422;9.656;2022-07-22T10:58:46;35.20;96.10
4366;DHT22;2196;47.422;9.656;2022-07-22T11:01:15;35.30;97.00
4366;DHT22;2196;47.422;9.656;2022-07-22T11:03:44;35.40;95.20
4366;DHT22;2196;47.422;9.656;2022-07-22T11:06:23;34.40;96.60
4366;DHT22;2196;47.422;9.656;2022-07-22T11:08:52;33.80;98.00
4366;DHT22;2196;47.422;9.656;2022-07-22T11:11:37;32.90;98.60
4366;DHT22;2196;47.422;9.656;2022-07-22T11:14:12;33.10;99.90
4366;DHT22;2196;47.422;9.656;2022-07-22T11:16:39;33.10;99.90
4366;DHT22;2196;47.422;9.656;2022-07-22T11:19:06;32.70;99.80
4366;DHT22;2196;47.422;9.656;2022-07-22T11:21:34;32.20;99.30
4366;DHT22;2196;47.422;9.656;2022-07-22T11:24:03;32.40;99.90
4366;DHT22;2196;47.422;9.656;2022-07-22T11:26:40;31.90;99.90
4366;DHT22;2196;47.422;9.656;2022-07-22T11:29:07;32.00;99.90
4366;DHT22;2196;47.422;9.656;2022-07-22T11:31:35;32.00;99.90
4366;DHT22;2196;47.422;9.656;2022-07-22T11:34:10;31.60;99.90
4366;DHT22;2196;47.422;9.656;2022-07-22T11:36:40;31.50;99.90
4366;DHT22;2196;47.422;9.656;2022-07-22T11:39:11;31.50;99.90
4366;DHT22;2196;47.422;9.656;2022-07-22T11:41:40;31.60;99.90
4366;DHT22;2196;47.422;9.656;2022-07-22T11:44:07;31.60;99.90
4366;DHT22;2196;47.422;9.656;2022-07-22T11:46:36;31.60;99.90
4366;DHT22;2196;47.422;9.656;2022-07-22T11:49:03;31.50;99.90
4366;DHT22;2196;47.422;9.656;2022-07-22T11:51:31;31.60;99.90
4366;DHT22;2196;47.422;9.656;2022-07-22T11:53:59;31.50;99.90
4366;DHT22;2196;47.422;9.656;2022-07-22T11:56:26;31.50;99.90
4366;DHT22;2196;47.422;9.656;2022-07-22T11:58:55;31.40;99.90
4366;DHT22;2196;47.422;9.656;2022-07-22T12:01:24;31.20;99.90
4366;DHT22;2196;47.422;9.656;2022-07-22T12:03:53;31.30;99.90
4366;DHT22;2196;47.422;9.656;2022-07-22T12:06:21;31.30;99.90
4366;DHT22;2196;47.422;9.656;2022-07-22T12:08:51;31.10;99.90
4366;DHT22;2196;47.422;9.656;2022-07-22T12:11:21;31.10;99.90
4366;DHT22;2196;47.422;9.656;2022-07-22T12:13:50;31.10;99.90
4366;DHT22;2196;47.422;9.656;2022-07-22T12:16:22;31.10;99.90
4366;DHT22;2196;47.422;9.656;2022-07-22T12:18:55;31.20;99.90
4366;DHT22;2196;47.422;9.656;2022-07-22T12:21:23;31.30;99.90
4366;DHT22;2196;47.422;9.656;2022-07-22T12:23:55;31.30;99.90
4366;DHT22;2196;47.422;9.656;2022-07-22T12:26:43;31.20;99.90
4366;DHT22;2196;47.422;9.656;2022-07-22T12:29:20;31.10;99.90
4366;DHT22;2196;47.422;9.656;2022-07-22T12:31:51;31.30;99.90
4366;DHT22;2196;47.422;9.656;2022-07-22T12:34:30;31.10;99.90
4366;DHT22;2196;47.422;9.656;2022-07-22T12:37:00;30.90;99.90
4366;DHT22;2196;47.422;9.656;2022-07-22T12:39:29;30.80;99.90
4366;DHT22;2196;47.422;9.656;2022-07-22T12:41:56;31.00;99.90
4366;DHT22;2196;47.422;9.656;2022-07-22T12:44:25;31.00;99.90
4366;DHT22;2196;47.422;9.656;2022-07-22T12:46:54;30.90;99.90
4366;DHT22;2196;47.422;9.656;2022-07-22T12:49:24;30.90;99.90
4366;DHT22;2196;47.422;9.656;2022-07-22T12:52:07;30.80;99.90
4366;DHT22;2196;47.422;9.656;2022-07-22T12:54:35;30.90;99.90
4366;DHT22;2196;47.422;9.656;2022-07-22T12:57:03;30.70;99.90
4366;DHT22;2196;47.422;9.656;2022-07-22T12:59:30;30.70;99.90
4366;DHT22;2196;47.422;9.656;2022-07-22T13:01:59;30.80;99.90
4366;DHT22;2196;47.422;9.656;2022-07-22T13:04:26;30.80;99.90
4366;DHT22;2196;47.422;9.656;2022-07-22T13:06:53;30.80;99.90
4366;DHT22;2196;47.422;9.656;2022-07-22T13:09:20;30.70;99.90
4366;DHT22;2196;47.422;9.656;2022-07-22T13:11:47;30.70;99.90
4366;DHT22;2196;47.422;9.656;2022-07-22T13:14:15;30.80;99.90
4366;DHT22;2196;47.422;9.656;2022-07-22T13:16:42;30.80;99.90
4366;DHT22;2196;47.422;9.656;2022-07-22T13:19:10;30.80;99.90
4366;DHT22;2196;47.422;9.656;2022-07-22T13:21:38;30.70;99.90
4366;DHT22;2196;47.422;9.656;2022-07-22T13:24:05;30.80;99.90
4366;DHT22;2196;47.422;9.656;2022-07-22T13:26:32;30.80;99.90
4366;DHT22;2196;47.422;9.656;2022-07-22T13:29:00;30.80;99.80
4366;DHT22;2196;47.422;9.656;2022-07-22T13:31:27;30.80;99.00
4366;DHT22;2196;47.422;9.656;2022-07-22T13:33:54;30.80;99.50
4366;DHT22;2196;47.422;9.656;2022-07-22T13:36:23;30.90;99.60
4366;DHT22;2196;47.422;9.656;2022-07-22T13:38:50;30.90;99.60
4366;DHT22;2196;47.422;9.656;2022-07-22T13:41:18;30.90;98.40
4366;DHT22;2196;47.422;9.656;2022-07-22T13:43:45;30.80;98.00
4366;DHT22;2196;47.422;9.656;2022-07-22T13:46:15;30.90;98.00
4366;DHT22;2196;47.422;9.656;2022-07-22T13:48:42;31.00;99.50
4366;DHT22;2196;47.422;9.656;2022-07-22T13:51:09;31.00;99.10
4366;DHT22;2196;47.422;9.656;2022-07-22T13:53:38;30.90;97.80
4366;DHT22;2196;47.422;9.656;2022-07-22T13:56:05;31.00;98.60
4366;DHT22;2196;47.422;9.656;2022-07-22T13:58:32;30.90;96.60
4366;DHT22;2196;47.422;9.656;2022-07-22T14:00:59;30.90;94.90
4366;DHT22;2196;47.422;9.656;2022-07-22T14:03:27;31.10;96.50
4366;DHT22;2196;47.422;9.656;2022-07-22T14:05:54;31.10;96.00
4366;DHT22;2196;47.422;9.656;2022-07-22T14:08:21;31.20;95.20
4366;DHT22;2196;47.422;9.656;2022-07-22T14:10:53;31.10;95.10
4366;DHT22;2196;47.422;9.656;2022-07-22T14:13:23;31.00;96.80
4366;DHT22;2196;47.422;9.656;2022-07-22T14:15:50;31.00;95.70
4366;DHT22;2196;47.422;9.656;2022-07-22T14:18:17;30.90;94.00
4366;DHT22;2196;47.422;9.656;2022-07-22T14:20:44;30.90;95.90
4366;DHT22;2196;47.422;9.656;2022-07-22T14:23:11;30.80;94.70
4366;DHT22;2196;47.422;9.656;2022-07-22T14:25:39;30.80;95.30
4366;DHT22;2196;47.422;9.656;2022-07-22T14:28:08;30.70;92.50
4366;DHT22;2196;47.422;9.656;2022-07-22T14:30:35;30.70;93.30
4366;DHT22;2196;47.422;9.656;2022-07-22T14:33:02;30.70;93.60
4366;DHT22;2196;47.422;9.656;2022-07-22T14:35:29;30.70;91.30
4366;DHT22;2196;47.422;9.656;2022-07-22T14:37:59;30.80;90.10
4366;DHT22;2196;47.422;9.656;2022-07-22T14:40:26;30.80;88.10
4366;DHT22;2196;47.422;9.656;2022-07-22T14:42:53;30.80;86.70
4366;DHT22;2196;47.422;9.656;2022-07-22T14:45:21;30.80;90.00
4366;DHT22;2196;47.422;9.656;2022-07-22T14:47:48;30.80;91.80
4366;DHT22;2196;47.422;9.656;2022-07-22T14:50:16;30.80;92.40
4366;DHT22;2196;47.422;9.656;2022-07-22T14:52:42;30.80;90.70
4366;DHT22;2196;47.422;9.656;2022-07-22T14:55:09;30.90;93.10
4366;DHT22;2196;47.422;9.656;2022-07-22T14:57:36;31.00;90.90
4366;DHT22;2196;47.422;9.656;2022-07-22T15:00:05;31.00;93.10
4366;DHT22;2196;47.422;9.656;2022-07-22T15:02:34;30.90;92.70
4366;DHT22;2196;47.422;9.656;2022-07-22T15:05:02;30.90;92.60
4366;DHT22;2196;47.422;9.656;2022-07-22T15:07:29;30.90;91.50
4366;DHT22;2196;47.422;9.656;2022-07-22T15:09:56;30.90;92.10
4366;DHT22;2196;47.422;9.656;2022-07-22T15:12:23;30.90;90.10
4366;DHT22;2196;47.422;9.656;2022-07-22T15:14:50;30.80;90.80
4366;DHT22;2196;47.422;9.656;2022-07-22T15:17:17;30.90;90.60
4366;DHT22;2196;47.422;9.656;2022-07-22T15:19:45;31.00;91.60
4366;DHT22;2196;47.422;9.656;2022-07-22T15:22:12;31.00;92.20
4366;DHT22;2196;47.422;9.656;2022-07-22T15:24:39;31.00;87.70
4366;DHT22;2196;47.422;9.656;2022-07-22T15:27:06;31.00;88.70
4366;DHT22;2196;47.422;9.656;2022-07-22T15:29:33;31.10;90.20
4366;DHT22;2196;47.422;9.656;2022-07-22T15:32:00;31.10;92.40
4366;DHT22;2196;47.422;9.656;2022-07-22T15:34:31;31.20;91.90
4366;DHT22;2196;47.422;9.656;2022-07-22T15:37:00;31.20;92.30
4366;DHT22;2196;47.422;9.656;2022-07-22T15:39:27;31.10;91.20
4366;DHT22;2196;47.422;9.656;2022-07-22T15:41:54;31.10;91.50
4366;DHT22;2196;47.422;9.656;2022-07-22T15:44:21;31.10;91.50
4366;DHT22;2196;47.422;9.656;2022-07-22T15:46:48;31.00;92.50
4366;DHT22;2196;47.422;9.656;2022-07-22T15:49:15;31.00;91.50
4366;DHT22;2196;47.422;9.656;2022-07-22T15:51:43;31.10;91.20
4366;DHT22;2196;47.422;9.656;2022-07-22T15:54:12;31.10;91.20
4366;DHT22;2196;47.422;9.656;2022-07-22T15:56:39;31.10;91.30
4366;DHT22;2196;47.422;9.656;2022-07-22T15:59:06;31.20;91.90
4366;DHT22;2196;47.422;9.656;2022-07-22T16:01:51;31.30;92.90
4366;DHT22;2196;47.422;9.656;2022-07-22T16:04:18;31.30;91.50
4366;DHT22;2196;47.422;9.656;2022-07-22T16:06:45;31.20;91.30
4366;DHT22;2196;47.422;9.656;2022-07-22T16:09:14;31.20;91.10
4366;DHT22;2196;47.422;9.656;2022-07-22T16:11:41;31.20;90.70